sensor_id;sensor_type;location;lat;lon;timestamp;temperature;humidity
15184;DHT22;7693;49.266;7.104;2023-10-13T05:45:48;15.50;99.90
15184;DHT22;7693;49.266;7.104;2023-10-13T05:48:32;15.50;99.90
15184;DHT22;7693;49.266;7.104;2023-10-13T05:51:28;15.60;99.90
15184;DHT22;7693;49.266;7.104;2023-10-13T05:54:13;15.60;99.90
15184;DHT22;7693;49.266;7.104;2023-10-13T05:56:49;15.60;99.90
15184;DHT22;7693;49.266;7.104;2023-10-13T05:59:35;15.70;99.90
15184;DHT22;7693;49.266;7.104;2023-10-13T06:02:21;15.70;99.90
15184;DHT22;7693;49.266;7.104;2023-10-13T06:05:12;15.80;99.90
15184;DHT22;7693;49.266;7.104;2023-10-13T06:07:58;15.80;99.90
15184;DHT22;7693;49.266;7.104;2023-10-13T06:10:42;15.90;99.90
15184;DHT22;7693;49.266;7.104;2023-10-13T06:13:27;16.00;99.90
15184;DHT22;7693;49.266;7.104;2023-10-13T06:16:13;16.00;99.90
15184;DHT22;7693;49.266;7.104;2023-10-13T06:18:57;16.10;99.90
15184;DHT22;7693;49.266;7.104;2023-10-13T06:21:42;16.20;99.90
15184;DHT22;7693;49.266;7.104;2023-10-13T06:24:28;16.30;99.90
15184;DHT22;7693;49.266;7.104;2023-10-13T06:27:12;16.30;99.90
15184;DHT22;7693;49.266;7.104;2023-10-13T06:29:56;16.40;99.90
15184;DHT22;7693;49.266;7.104;2023-10-13T06:32:23;16.40;99.90
15184;DHT22;7693;49.266;7.104;2023-10-13T06:34:54;16.50;99.90
15184;DHT22;7693;49.266;7.104;2023-10-13T06:37:26;16.50;99.90
15184;DHT22;7693;49.266;7.104;2023-10-13T06:39:56;16.50;99.90
15184;DHT22;7693;49.266;7.104;2023-10-13T06:42:23;16.50;99.90
15184;DHT22;7693;49.266;7.104;2023-10-13T06:44:53;16.60;99.90
15184;DHT22;7693;49.266;7.104;2023-10-13T06:47:19;16.60;99.90
15184;DHT22;7693;49.266;7.104;2023-10-13T06:49:46;16.60;99.90
15184;DHT22;7693;49.266;7.104;2023-10-13T06:52:14;16.70;99.90
15184;DHT22;7693;49.266;7.104;2023-10-13T06:54:41;16.70;99.90
15184;DHT22;7693;49.266;7.104;2023-10-13T06:57:09;16.80;99.90
15184;DHT22;7693;49.266;7.104;2023-10-13T06:59:42;16.80;99.90
15184;DHT22;7693;49.266;7.104;2023-10-13T07:02:08;16.80;99.90
15184;DHT22;7693;49.266;7.104;2023-10-13T07:04:36;16.80;99.90
15184;DHT22;7693;49.266;7.104;2023-10-13T07:07:07;16.90;99.90
15184;DHT22;7693;49.266;7.104;2023-10-13T07:09:36;16.90;99.90
15184;DHT22;7693;49.266;7.104;2023-10-13T07:12:03;17.00;99.90
15184;DHT22;7693;49.266;7.104;2023-10-13T07:14:29;17.00;99.90
15184;DHT22;7693;49.266;7.104;2023-10-13T07:17:05;17.00;99.90
15184;DHT22;7693;49.266;7.104;2023-10-13T07:19:31;17.10;99.90
15184;DHT22;7693;49.266;7.104;2023-10-13T07:21:59;17.10;99.90
15184;DHT22;7693;49.266;7.104;2023-10-13T07:24:34;17.10;99.90
15184;DHT22;7693;49.266;7.104;2023-10-13T07:27:05;17.10;99.90
15184;DHT22;7693;49.266;7.104;2023-10-13T07:29:31;17.10;99.90
15184;DHT22;7693;49.266;7.104;2023-10-13T07:32:01;17.10;99.90
15184;DHT22;7693;49.266;7.104;2023-10-13T07:34:35;17.20;99.90
15184;DHT22;7693;49.266;7.104;2023-10-13T07:37:01;17.20;99.90
15184;DHT22;7693;49.266;7.104;2023-10-13T07:39:28;17.20;99.90
15184;DHT22;7693;49.266;7.104;2023-10-13T07:41:54;17.30;99.90
15184;DHT22;7693;49.266;7.104;2023-10-13T07:44:22;17.30;99.90
15184;DHT22;7693;49.266;7.104;2023-10-13T07:46:54;17.40;99.90
15184;DHT22;7693;49.266;7.104;2023-10-13T07:49:36;17.50;99.90
15184;DHT22;7693;49.266;7.104;2023-10-13T07:52:06;17.60;99.90
15184;DHT22;7693;49.266;7.104;2023-10-13T07:54:49;17.60;99.90
15184;DHT22;7693;49.266;7.104;2023-10-13T07:57:15;17.60;99.90
15184;DHT22;7693;49.266;7.104;2023-10-13T07:59:42;17.60;99.90
15184;DHT22;7693;49.266;7.104;2023-10-13T08:02:19;17.60;99.90
15184;DHT22;7693;49.266;7.104;2023-10-13T08:05:09;17.60;99.90
15184;DHT22;7693;49.266;7.104;2023-10-13T08:07:34;17.70;99.90
15184;DHT22;7693;49.266;7.104;2023-10-13T08:10:05;17.60;99.90
15184;DHT22;7693;49.266;7.104;2023-10-13T08:12:34;17.60;99.90
15184;DHT22;7693;49.266;7.104;2023-10-13T08:15:03;17.60;99.90
15184;DHT22;7693;49.266;7.104;2023-10-13T08:17:47;17.60;99.90
15184;DHT22;7693;49.266;7.104;2023-10-13T08:20:12;17.60;99.90
15184;DHT22;7693;49.266;7.104;2023-10-13T08:22:42;17.70;99.90
15184;DHT22;7693;49.266;7.104;2023-10-13T08:25:12;17.80;99.90
15184;DHT22;7693;49.266;7.104;2023-10-13T08:28:01;17.90;99.90
15184;DHT22;7693;49.266;7.104;2023-10-13T08:30:46;18.00;99.90
15184;DHT22;7693;49.266;7.104;2023-10-13T08:33:18;18.10;99.90
15184;DHT22;7693;49.266;7.104;2023-10-13T08:35:44;18.20;99.90
15184;DHT22;7693;49.266;7.104;2023-10-13T08:38:39;18.30;99.90
15184;DHT22;7693;49.266;7.104;2023-10-13T08:41:16;18.50;99.90
15184;DHT22;7693;49.266;7.104;2023-10-13T08:43:44;18.50;99.90
15184;DHT22;7693;49.266;7.104;2023-10-13T08:46:17;18.60;99.90
15184;DHT22;7693;49.266;7.104;2023-10-13T08:48:59;18.70;99.90
15184;DHT22;7693;49.266;7.104;2023-10-13T08:51:52;18.70;99.90
15184;DHT22;7693;49.266;7.104;2023-10-13T08:54:39;18.80;99.90
15184;DHT22;7693;49.266;7.104;2023-10-13T08:57:11;18.90;99.90
15184;DHT22;7693;49.266;7.104;2023-10-13T09:00:09;18.90;99.90
15184;DHT22;7693;49.266;7.104;2023-10-13T09:03:14;19.00;99.90
15184;DHT22;7693;49.266;7.104;2023-10-13T09:05:55;19.10;99.90
15184;DHT22;7693;49.266;7.104;2023-10-13T09:08:28;19.20;99.90
15184;DHT22;7693;49.266;7.104;2023-10-13T09:11:10;19.30;99.90
15184;DHT22;7693;49.266;7.104;2023-10-13T09:13:39;19.30;99.90
15184;DHT22;7693;49.266;7.104;2023-10-13T09:16:15;19.40;99.90
15184;DHT22;7693;49.266;7.104;2023-10-13T09:19:05;19.40;99.90
15184;DHT22;7693;49.266;7.104;2023-10-13T09:21:38;19.40;99.90
15184;DHT22;7693;49.266;7.104;2023-10-13T09:24:11;19.50;99.90
15184;DHT22;7693;49.266;7.104;2023-10-13T09:26:58;19.60;99.90
15184;DHT22;7693;49.266;7.104;2023-10-13T09:29:28;19.70;99.90
15184;DHT22;7693;49.266;7.104;2023-10-13T09:32:02;19.80;99.90
15184;DHT22;7693;49.266;7.104;2023-10-13T09:34:28;19.90;99.90
15184;DHT22;7693;49.266;7.104;2023-10-13T09:37:00;19.90;99.90
15184;DHT22;7693;49.266;7.104;2023-10-13T09:39:28;20.00;99.90
15184;DHT22;7693;49.266;7.104;2023-10-13T09:42:01;20.10;99.90
15184;DHT22;7693;49.266;7.104;2023-10-13T09:44:28;20.20;99.90
15184;DHT22;7693;49.266;7.104;2023-10-13T09:47:02;20.30;99.90
15184;DHT22;7693;49.266;7.104;2023-10-13T09:49:39;20.40;99.90
15184;DHT22;7693;49.266;7.104;2023-10-13T09:52:18;20.40;99.90
15184;DHT22;7693;49.266;7.104;2023-10-13T09:57:37;20.50;99.90
15184;DHT22;7693;49.266;7.104;2023-10-13T11:45:47;21.70;99.90
15184;DHT22;7693;49.266;7.104;2023-10-13T11:48:28;21.80;99.90
15184;DHT22;7693;49.266;7.104;2023-10-13T11:51:02;21.80;99.90
15184;DHT22;7693;49.266;7.104;2023-10-13T11:53:37;21.90;99.90
15184;DHT22;7693;49.266;7.104;2023-10-13T11:56:04;21.90;99.90
15184;DHT22;7693;49.266;7.104;2023-10-13T11:58:35;22.00;99.90
15184;DHT22;7693;49.266;7.104;2023-10-13T12:01:01;22.00;99.90
15184;DHT22;7693;49.266;7.104;2023-10-13T12:03:34;22.10;99.90
15184;DHT22;7693;49.266;7.104;2023-10-13T12:06:18;22.10;99.90
15184;DHT22;7693;49.266;7.104;2023-10-13T12:08:48;22.10;99.90
15184;DHT22;7693;49.266;7.104;2023-10-13T12:11:18;22.10;99.90
15184;DHT22;7693;49.266;7.104;2023-10-13T12:13:56;22.10;99.90
15184;DHT22;7693;49.266;7.104;2023-10-13T12:16:22;22.10;99.90
15184;DHT22;7693;49.266;7.104;2023-10-13T12:18:48;22.20;99.90
15184;DHT22;7693;49.266;7.104;2023-10-13T12:21:19;22.20;99.90
15184;DHT22;7693;49.266;7.104;2023-10-13T12:23:47;22.20;99.90
15184;DHT22;7693;49.266;7.104;2023-10-13T12:26:12;22.20;99.90
15184;DHT22;7693;49.266;7.104;2023-10-13T12:28:58;22.20;99.90
15184;DHT22;7693;49.266;7.104;2023-10-13T12:31:32;22.30;99.90
15184;DHT22;7693;49.266;7.104;2023-10-13T12:33:58;22.30;99.90
15184;DHT22;7693;49.266;7.104;2023-10-13T12:36:32;22.30;99.90
15184;DHT22;7693;49.266;7.104;2023-10-13T12:39:06;22.30;99.90
15184;DHT22;7693;49.266;7.104;2023-10-13T12:41:32;22.30;99.90
15184;DHT22;7693;49.266;7.104;2023-10-13T12:44:16;22.30;99.90
15184;DHT22;7693;49.266;7.104;2023-10-13T12:47:01;22.30;99.90
15184;DHT22;7693;49.266;7.104;2023-10-13T12:49:44;22.30;99.90
15184;DHT22;7693;49.266;7.104;2023-10-13T12:52:11;22.30;99.90
15184;DHT22;7693;49.266;7.104;2023-10-13T12:54:51;22.40;99.90
15184;DHT22;7693;49.266;7.104;2023-10-13T12:57:23;22.40;99.90
15184;DHT22;7693;49.266;7.104;2023-10-13T12:59:52;22.40;99.90
15184;DHT22;7693;49.266;7.104;2023-10-13T13:02:23;22.60;99.90
15184;DHT22;7693;49.266;7.104;2023-10-13T13:04:53;22.70;99.90
15184;DHT22;7693;49.266;7.104;2023-10-13T13:07:27;22.80;99.90
15184;DHT22;7693;49.266;7.104;2023-10-13T13:09:55;22.90;99.90
15184;DHT22;7693;49.266;7.104;2023-10-13T13:12:24;23.00;99.90
15184;DHT22;7693;49.266;7.104;2023-10-13T13:14:50;23.10;99.90
15184;DHT22;7693;49.266;7.104;2023-10-13T13:17:20;23.10;99.90
15184;DHT22;7693;49.266;7.104;2023-10-13T13:19:46;23.20;99.90
15184;DHT22;7693;49.266;7.104;2023-10-13T13:22:12;23.30;99.90
15184;DHT22;7693;49.266;7.104;2023-10-13T13:24:41;23.40;99.90
15184;DHT22;7693;49.266;7.104;2023-10-13T13:27:14;23.50;99.90
15184;DHT22;7693;49.266;7.104;2023-10-13T13:29:46;23.60;99.90
15184;DHT22;7693;49.266;7.104;2023-10-13T13:32:12;23.70;99.90
15184;DHT22;7693;49.266;7.104;2023-10-13T13:34:52;23.80;99.90
15184;DHT22;7693;49.266;7.104;2023-10-13T13:37:30;23.90;99.90
15184;DHT22;7693;49.266;7.104;2023-10-13T13:39:55;24.10;99.90
15184;DHT22;7693;49.266;7.104;2023-10-13T13:42:21;24.20;99.90
15184;DHT22;7693;49.266;7.104;2023-10-13T13:44:47;24.30;99.90
15184;DHT22;7693;49.266;7.104;2023-10-13T13:47:13;24.30;99.90
15184;DHT22;7693;49.266;7.104;2023-10-13T13:49:40;24.30;99.90
15184;DHT22;7693;49.266;7.104;2023-10-13T13:52:07;24.30;99.90
15184;DHT22;7693;49.266;7.104;2023-10-13T13:54:33;24.20;99.90
15184;DHT22;7693;49.266;7.104;2023-10-13T13:56:58;24.20;99.90
15184;DHT22;7693;49.266;7.104;2023-10-13T13:59:24;24.20;99.90
15184;DHT22;7693;49.266;7.104;2023-10-13T14:01:50;24.30;99.90
15184;DHT22;7693;49.266;7.104;2023-10-13T14:04:18;24.30;99.90
15184;DHT22;7693;49.266;7.104;2023-10-13T14:06:44;24.40;99.90
15184;DHT22;7693;49.266;7.104;2023-10-13T14:09:11;24.40;99.90
15184;DHT22;7693;49.266;7.104;2023-10-13T14:11:41;24.50;99.90
15184;DHT22;7693;49.266;7.104;2023-10-13T14:14:25;24.50;99.90
15184;DHT22;7693;49.266;7.104;2023-10-13T14:16:51;24.60;99.90
15184;DHT22;7693;49.266;7.104;2023-10-13T14:19:17;24.50;99.90
15184;DHT22;7693;49.266;7.104;2023-10-13T14:22:01;24.50;99.90
15184;DHT22;7693;49.266;7.104;2023-10-13T14:24:33;24.40;99.90
15184;DHT22;7693;49.266;7.104;2023-10-13T14:27:01;24.30;99.90
15184;DHT22;7693;49.266;7.104;2023-10-13T14:29:35;24.20;99.90
15184;DHT22;7693;49.266;7.104;2023-10-13T14:32:07;24.10;99.90
15184;DHT22;7693;49.266;7.104;2023-10-13T14:34:38;24.00;99.90
15184;DHT22;7693;49.266;7.104;2023-10-13T14:37:03;24.10;99.90
15184;DHT22;7693;49.266;7.104;2023-10-13T14:39:30;24.20;99.90
15184;DHT22;7693;49.266;7.104;2023-10-13T14:41:56;24.40;99.90
15184;DHT22;7693;49.266;7.104;2023-10-13T14:44:21;24.50;99.90
15184;DHT22;7693;49.266;7.104;2023-10-13T14:46:52;24.50;99.90
15184;DHT22;7693;49.266;7.104;2023-10-13T14:49:20;24.40;99.90
15184;DHT22;7693;49.266;7.104;2023-10-13T14:51:46;24.30;99.90
15184;DHT22;7693;49.266;7.104;2023-10-13T14:54:12;24.30;99.90
15184;DHT22;7693;49.266;7.104;2023-10-13T14:56:39;24.20;99.90
15184;DHT22;7693;49.266;7.104;2023-10-13T14:59:08;24.20;99.90
15184;DHT22;7693;49.266;7.104;2023-10-13T15:01:40;24.30;99.90
15184;DHT22;7693;49.266;7.104;2023-10-13T15:04:06;24.30;99.90
15184;DHT22;7693;49.266;7.104;2023-10-13T15:06:31;24.20;99.90
15184;DHT22;7693;49.266;7.104;2023-10-13T15:08:58;24.20;99.90
15184;DHT22;7693;49.266;7.104;2023-10-13T15:11:25;24.10;99.90
15184;DHT22;7693;49.266;7.104;2023-10-13T15:14:04;24.00;99.90
15184;DHT22;7693;49.266;7.104;2023-10-13T15:16:31;23.90;99.90
15184;DHT22;7693;49.266;7.104;2023-10-13T15:18:59;23.80;99.90
15184;DHT22;7693;49.266;7.104;2023-10-13T15:21:26;23.80;99.90
15184;DHT22;7693;49.266;7.104;2023-10-13T15:23:56;23.70;99.90
15184;DHT22;7693;49.266;7.104;2023-10-13T15:26:27;23.70;99.90
15184;DHT22;7693;49.266;7.104;2023-10-13T15:28:54;23.60;99.90
15184;DHT22;7693;49.266;7.104;2023-10-13T15:31:23;23.60;99.90
15184;DHT22;7693;49.266;7.104;2023-10-13T15:34:04;23.50;99.90
15184;DHT22;7693;49.266;7.104;2023-10-13T15:36:33;23.50;99.90
15184;DHT22;7693;49.266;7.104;2023-10-13T15:38:59;23.50;99.90
15184;DHT22;7693;49.266;7.104;2023-10-13T15:41:27;23.50;99.90
15184;DHT22;7693;49.266;7.104;2023-10-13T15:43:53;23.50;99.90
15184;DHT22;7693;49.266;7.104;2023-10-13T15:46:21;23.40;99.90
15184;DHT22;7693;49.266;7.104;2023-10-13T15:48:47;23.40;99.90
15184;DHT22;7693;49.266;7.104;2023-10-13T15:51:13;23.40;99.90
15184;DHT22;7693;49.266;7.104;2023-10-13T15:53:39;23.40;99.90
15184;DHT22;7693;49.266;7.104;2023-10-13T15:56:05;23.40;99.90
15184;DHT22;7693;49.266;7.104;2023-10-13T15:58:43;23.30;99.90
15184;DHT22;7693;49.266;7.104;2023-10-13T16:01:09;23.30;99.90
15184;DHT22;7693;49.266;7.104;2023-10-13T16:03:41;23.30;99.90
15184;DHT22;7693;49.266;7.104;2023-10-13T16:06:09;23.30;99.90
15184;DHT22;7693;49.266;7.104;2023-10-13T16:08:39;23.20;99.90
15184;DHT22;7693;49.266;7.104;2023-10-13T16:11:09;23.20;99.90
15184;DHT22;7693;49.266;7.104;2023-10-13T16:13:39;23.20;99.90
15184;DHT22;7693;49.266;7.104;2023-10-13T16:16:05;23.20;99.90
15184;DHT22;7693;49.266;7.104;2023-10-13T16:18:32;23.10;99.90
15184;DHT22;7693;49.266;7.104;2023-10-13T16:21:01;23.00;99.90
15184;DHT22;7693;49.266;7.104;2023-10-13T16:23:31;22.90;99.90
15184;DHT22;7693;49.266;7.104;2023-10-13T16:25:56;22.90;99.90
15184;DHT22;7693;49.266;7.104;2023-10-13T16:28:25;22.90;99.90
15184;DHT22;7693;49.266;7.104;2023-10-13T16:30:51;22.80;99.90
15184;DHT22;7693;49.266;7.104;2023-10-13T16:33:22;22.80;99.90
15184;DHT22;7693;49.266;7.104;2023-10-13T16:35:48;22.80;99.90
15184;DHT22;7693;49.266;7.104;2023-10-13T16:38:15;22.70;99.80
15184;DHT22;7693;49.266;7.104;2023-10-13T16:40:41;22.70;99.90
15184;DHT22;7693;49.266;7.104;2023-10-13T16:43:07;22.70;99.80
15184;DHT22;7693;49.266;7.104;2023-10-13T16:45:36;22.60;99.80
15184;DHT22;7693;49.266;7.104;2023-10-13T16:48:02;22.60;99.70
15184;DHT22;7693;49.266;7.104;2023-10-13T16:50:28;22.50;99.60
15184;DHT22;7693;49.266;7.104;2023-10-13T16:52:56;22.50;99.60
15184;DHT22;7693;49.266;7.104;2023-10-13T16:55:22;22.50;99.50
15184;DHT22;7693;49.266;7.104;2023-10-13T16:57:49;22.50;99.40
15184;DHT22;7693;49.266;7.104;2023-10-13T17:00:19;22.50;99.30
15184;DHT22;7693;49.266;7.104;2023-10-13T17:02:53;22.50;99.30
15184;DHT22;7693;49.266;7.104;2023-10-13T17:05:20;22.40;99.20
15184;DHT22;7693;49.266;7.104;2023-10-13T17:07:45;22.40;99.10
15184;DHT22;7693;49.266;7.104;2023-10-13T17:10:16;22.40;99.20
15184;DHT22;7693;49.266;7.104;2023-10-13T17:12:43;22.40;99.10
15184;DHT22;7693;49.266;7.104;2023-10-13T17:15:09;22.30;99.00
15184;DHT22;7693;49.266;7.104;2023-10-13T17:17:42;22.30;98.90
15184;DHT22;7693;49.266;7.104;2023-10-13T17:20:09;22.30;98.80
15184;DHT22;7693;49.266;7.104;2023-10-13T17:22:36;22.30;98.80
15184;DHT22;7693;49.266;7.104;2023-10-13T17:25:02;22.20;98.70
15184;DHT22;7693;49.266;7.104;2023-10-13T17:27:29;22.10;98.80
15184;DHT22;7693;49.266;7.104;2023-10-13T17:29:58;22.10;98.70
15184;DHT22;7693;49.266;7.104;2023-10-13T17:32:24;22.00;98.70
15184;DHT22;7693;49.266;7.104;2023-10-13T17:34:49;22.00;98.50
15184;DHT22;7693;49.266;7.104;2023-10-13T17:37:16;22.10;98.70
15184;DHT22;7693;49.266;7.104;2023-10-13T17:39:42;22.00;98.50
15184;DHT22;7693;49.266;7.104;2023-10-13T17:42:10;22.10;98.50
15184;DHT22;7693;49.266;7.104;2023-10-13T17:44:39;22.10;98.40
15184;DHT22;7693;49.266;7.104;2023-10-13T17:47:05;22.10;98.30
15184;DHT22;7693;49.266;7.104;2023-10-13T17:49:36;22.00;98.20
15184;DHT22;7693;49.266;7.104;2023-10-13T17:52:08;22.00;98.20
15184;DHT22;7693;49.266;7.104;2023-10-13T17:54:34;22.00;98.10
15184;DHT22;7693;49.266;7.104;2023-10-13T17:57:00;22.00;98.20
15184;DHT22;7693;49.266;7.104;2023-10-13T17:59:25;22.00;98.20
15184;DHT22;7693;49.266;7.104;2023-10-13T18:01:52;22.00;98.20
15184;DHT22;7693;49.266;7.104;2023-10-13T18:04:17;22.00;98.00
15184;DHT22;7693;49.266;7.104;2023-10-13T18:06:44;22.00;98.10
15184;DHT22;7693;49.266;7.104;2023-10-13T18:09:09;22.00;98.10
15184;DHT22;7693;49.266;7.104;2023-10-13T18:11:37;21.90;98.00
15184;DHT22;7693;49.266;7.104;2023-10-13T18:14:03;21.90;97.90
15184;DHT22;7693;49.266;7.104;2023-10-13T18:16:29;21.90;98.00
15184;DHT22;7693;49.266;7.104;2023-10-13T18:18:55;21.90;98.00
15184;DHT22;7693;49.266;7.104;2023-10-13T18:21:22;21.80;98.00
15184;DHT22;7693;49.266;7.104;2023-10-13T18:23:48;21.80;98.10
15184;DHT22;7693;49.266;7.104;2023-10-13T18:26:14;21.80;98.00
15184;DHT22;7693;49.266;7.104;2023-10-13T18:28:46;21.80;98.10
15184;DHT22;7693;49.266;7.104;2023-10-13T18:31:15;21.80;98.10
15184;DHT22;7693;49.266;7.104;2023-10-13T18:33:43;21.80;98.10
15184;DHT22;7693;49.266;7.104;2023-10-13T18:36:11;21.80;98.10
15184;DHT22;7693;49.266;7.104;2023-10-13T18:38:38;21.70;98.00
15184;DHT22;7693;49.266;7.104;2023-10-13T18:41:04;21.70;98.10
15184;DHT22;7693;49.266;7.104;2023-10-13T18:43:30;21.70;98.10
15184;DHT22;7693;49.266;7.104;2023-10-13T18:46:02;21.70;98.10
15184;DHT22;7693;49.266;7.104;2023-10-13T18:48:41;21.60;98.10
15184;DHT22;7693;49.266;7.104;2023-10-13T18:51:11;21.70;98.20
15184;DHT22;7693;49.266;7.104;2023-10-13T18:53:37;21.60;98.10
15184;DHT22;7693;49.266;7.104;2023-10-13T18:56:16;21.60;98.10
15184;DHT22;7693;49.266;7.104;2023-10-13T18:58:46;21.60;98.20
15184;DHT22;7693;49.266;7.104;2023-10-13T19:01:20;21.60;98.20
15184;DHT22;7693;49.266;7.104;2023-10-13T19:03:51;21.60;98.30
15184;DHT22;7693;49.266;7.104;2023-10-13T19:06:18;21.60;98.30
15184;DHT22;7693;49.266;7.104;2023-10-13T19:08:45;21.60;98.30
15184;DHT22;7693;49.266;7.104;2023-10-13T19:11:12;21.60;98.30
15184;DHT22;7693;49.266;7.104;2023-10-13T19:13:39;21.60;98.40
15184;DHT22;7693;49.266;7.104;2023-10-13T19:16:10;21.60;98.40
15184;DHT22;7693;49.266;7.104;2023-10-13T19:18:38;21.60;98.40
15184;DHT22;7693;49.266;7.104;2023-10-13T19:21:08;21.60;98.50
15184;DHT22;7693;49.266;7.104;2023-10-13T19:23:44;21.60;98.50
15184;DHT22;7693;49.266;7.104;2023-10-13T19:26:19;21.60;98.50
15184;DHT22;7693;49.266;7.104;2023-10-13T19:28:53;21.60;98.50
15184;DHT22;7693;49.266;7.104;2023-10-13T19:31:28;21.60;98.50
15184;DHT22;7693;49.266;7.104;2023-10-13T19:33:56;21.60;98.50
15184;DHT22;7693;49.266;7.104;2023-10-13T19:36:22;21.60;98.50
15184;DHT22;7693;49.266;7.104;2023-10-13T19:38:49;21.50;98.50
15184;DHT22;7693;49.266;7.104;2023-10-13T19:43:48;21.60;98.70
15184;DHT22;7693;49.266;7.104;2023-10-13T19:46:16;21.60;98.70
15184;DHT22;7693;49.266;7.104;2023-10-13T19:48:44;21.60;99.10
15184;DHT22;7693;49.266;7.104;2023-10-13T19:51:11;21.60;98.70
15184;DHT22;7693;49.266;7.104;2023-10-13T19:53:44;21.60;98.70
15184;DHT22;7693;49.266;7.104;2023-10-13T19:56:11;21.60;98.80
15184;DHT22;7693;49.266;7.104;2023-10-13T19:58:37;21.60;98.80
15184;DHT22;7693;49.266;7.104;2023-10-13T20:01:08;21.60;98.80
15184;DHT22;7693;49.266;7.104;2023-10-13T20:03:34;21.60;98.80
15184;DHT22;7693;49.266;7.104;2023-10-13T20:05:59;21.60;98.80
15184;DHT22;7693;49.266;7.104;2023-10-13T20:08:25;21.60;98.80
15184;DHT22;7693;49.266;7.104;2023-10-13T20:10:50;21.60;98.90
15184;DHT22;7693;49.266;7.104;2023-10-13T20:13:16;21.60;99.30
15184;DHT22;7693;49.266;7.104;2023-10-13T20:15:42;21.60;99.00
15184;DHT22;7693;49.266;7.104;2023-10-13T20:18:07;21.60;98.90
15184;DHT22;7693;49.266;7.104;2023-10-13T20:20:37;21.70;99.00
15184;DHT22;7693;49.266;7.104;2023-10-13T20:23:08;21.70;99.00
15184;DHT22;7693;49.266;7.104;2023-10-13T20:25:33;21.70;99.00
15184;DHT22;7693;49.266;7.104;2023-10-13T20:27:59;21.70;99.00
15184;DHT22;7693;49.266;7.104;2023-10-13T20:30:28;21.70;99.00
15184;DHT22;7693;49.266;7.104;2023-10-13T20:32:53;21.70;99.00
15184;DHT22;7693;49.266;7.104;2023-10-13T20:35:19;21.70;99.10
15184;DHT22;7693;49.266;7.104;2023-10-13T20:37:48;21.60;99.00
15184;DHT22;7693;49.266;7.104;2023-10-13T20:40:14;21.60;99.10
15184;DHT22;7693;49.266;7.104;2023-10-13T20:42:49;21.60;99.10
15184;DHT22;7693;49.266;7.104;2023-10-13T20:45:19;21.60;99.10
15184;DHT22;7693;49.266;7.104;2023-10-13T20:47:51;21.60;99.10
15184;DHT22;7693;49.266;7.104;2023-10-13T20:50:22;21.60;99.10
15184;DHT22;7693;49.266;7.104;2023-10-13T20:52:48;21.60;99.10
15184;DHT22;7693;49.266;7.104;2023-10-13T20:55:16;21.60;99.20
15184;DHT22;7693;49.266;7.104;2023-10-13T20:57:43;21.50;99.20
15184;DHT22;7693;49.266;7.104;2023-10-13T21:00:11;21.50;99.50
15184;DHT22;7693;49.266;7.104;2023-10-13T21:02:45;21.50;99.20
15184;DHT22;7693;49.266;7.104;2023-10-13T21:05:13;21.50;99.20
15184;DHT22;7693;49.266;7.104;2023-10-13T21:07:39;21.40;99.20
15184;DHT22;7693;49.266;7.104;2023-10-13T21:10:07;21.50;99.30
15184;DHT22;7693;49.266;7.104;2023-10-13T21:12:39;21.40;99.30
15184;DHT22;7693;49.266;7.104;2023-10-13T21:15:06;21.40;99.40
15184;DHT22;7693;49.266;7.104;2023-10-13T21:17:41;21.40;99.40
15184;DHT22;7693;49.266;7.104;2023-10-13T21:20:07;21.40;99.40
15184;DHT22;7693;49.266;7.104;2023-10-13T21:22:34;21.40;99.40
15184;DHT22;7693;49.266;7.104;2023-10-13T21:25:02;21.40;99.50
15184;DHT22;7693;49.266;7.104;2023-10-13T21:27:29;21.40;99.50
15184;DHT22;7693;49.266;7.104;2023-10-13T21:29:56;21.40;99.50
15184;DHT22;7693;49.266;7.104;2023-10-13T21:32:24;21.40;99.50
15184;DHT22;7693;49.266;7.104;2023-10-13T21:34:50;21.40;99.60
15184;DHT22;7693;49.266;7.104;2023-10-13T21:37:16;21.40;99.60
15184;DHT22;7693;49.266;7.104;2023-10-13T21:39:41;21.40;99.60
15184;DHT22;7693;49.266;7.104;2023-10-13T21:42:07;21.40;99.70
15184;DHT22;7693;49.266;7.104;2023-10-13T21:44:33;21.30;99.70
15184;DHT22;7693;49.266;7.104;2023-10-13T21:46:58;21.20;99.70
15184;DHT22;7693;49.266;7.104;2023-10-13T21:49:26;21.20;99.80
15184;DHT22;7693;49.266;7.104;2023-10-13T21:51:51;21.10;99.80
15184;DHT22;7693;49.266;7.104;2023-10-13T21:54:17;21.00;99.90
15184;DHT22;7693;49.266;7.104;2023-10-13T21:56:42;21.00;99.90
15184;DHT22;7693;49.266;7.104;2023-10-13T21:59:08;20.90;99.90
15184;DHT22;7693;49.266;7.104;2023-10-13T22:01:36;20.90;99.90
15184;DHT22;7693;49.266;7.104;2023-10-13T22:04:09;20.90;99.90
15184;DHT22;7693;49.266;7.104;2023-10-13T22:06:35;20.90;99.90
15184;DHT22;7693;49.266;7.104;2023-10-13T22:09:02;20.90;99.90
15184;DHT22;7693;49.266;7.104;2023-10-13T22:11:31;20.90;99.90
15184;DHT22;7693;49.266;7.104;2023-10-13T22:13:57;20.90;99.90
15184;DHT22;7693;49.266;7.104;2023-10-13T22:16:22;20.90;99.90
15184;DHT22;7693;49.266;7.104;2023-10-13T22:18:51;20.80;99.90
15184;DHT22;7693;49.266;7.104;2023-10-13T22:21:17;20.80;99.90
15184;DHT22;7693;49.266;7.104;2023-10-13T22:23:46;20.80;99.90
15184;DHT22;7693;49.266;7.104;2023-10-13T22:26:13;20.80;99.90
